11/04/05 - 07h:28mDenunciar

Dassault Mirage III RS

"White" rasgando o ar por entre os Alpes (note as lágrimas adicionadas à parte superior das asas, demonstrando a tristeza das tripulações pelo final de operação da aeronave que se aproximava). Este tipo de vôo requer uma grande atenção adicional uma vez que o espaço torna-se bastente restrito. A formação de nuvens e/ou neblinas por entre as montanhas é muito comum e a passagem no interior das mesmas é evitada, já que podem esconder armadilhas. O fluxo de ar por entre as montanhas também é diferente daquele de um ambiente livre, havendo geralmente uma grande quantidade de turbulência. Imagem de GoatWorks, retirada do site Airliners.net.





Dassault Mirage III: 30 Jahre eines sehr guten Brazillian Himmelverteidigers!





METAR SBPB 111000Z 10005KT 9999 SCT020 BKN300 26/26 Q1008=





### ESQUADRILHA DA FUMAÇA EM PARNAÍBA (VEJA NOTÍCIA) ### ESQUADRILHA DA FUMAÇA EM PARNAÍBA (VEJA NOTÍCIA) ###

Comentários (0)

Fotos postadas a mais de 15 dias não podem receber comentários.